PWSweather.com
Personal Weather Stations
Station Observations
KNVELKO7
Elko, NV 89801

Elko, NV 89801

Lat: 40.963233, Lon: -115.592836

Elevation: 5230

Station Type: WS-2812

High Low Average
Temperature 48.6°F9.2°F 36.7°F2.6°F 41.9°F5.5°F
Dew Point 42.5°F5.8°F 32.0°F0.0°F 36.2°F2.3°F
Winds 28.6 mph SSW46.0 mph SSW Calm Calm 11.1 mph 17.9 mph
Wind Gusts 32.4 mph52.1 mph -- 14.3 mph23.0 mph
Humidity 88% 70% 80%
Pressure 30.00 in1015.90 in 29.90 in1012.50 in -
Precipitation 3.21 in81.50 in - -
Hour Temp Dew Point Humidity Winds Wind Gusts Pressure Precip Precip Rate Daily Precip Total
12:03 AM 38.5°F3.6°C 32.3°F0.2°C 78% Calm Calm -- 29.93 in1013.5 mb 0.01 in0.3 mm 0.20 in5.1 mm 0.01 in0.3 mm
12:08 AM 38.5°F3.6°C 32.3°F0.2°C 78% Calm Calm -- 29.94 in1013.9 mb 0.02 in0.5 mm 0.12 in3.0 mm 0.01 in0.3 mm
12:13 AM 38.5°F3.6°C 32.3°F0.2°C 78% 0.9 mph W1.4 kmh W 0.9 mph1.4 kmh 29.93 in1013.5 mb 0.02 in0.5 mm 0.00 in0.0 mm 0.01 in0.3 mm
12:18 AM 38.5°F3.6°C 32.6°F0.3°C 79% 0.4 mph WSW0.6 kmh WSW 2.2 mph3.5 kmh 29.93 in1013.5 mb 0.02 in0.5 mm 0.00 in0.0 mm 0.01 in0.3 mm
12:23 AM 38.5°F3.6°C 32.6°F0.3°C 79% Calm Calm 2.2 mph3.5 kmh 29.93 in1013.5 mb 0.02 in0.5 mm 0.00 in0.0 mm 0.01 in0.3 mm
12:28 AM 38.5°F3.6°C 32.6°F0.3°C 79% Calm Calm 0.2 mph0.3 kmh 29.93 in1013.5 mb 0.02 in0.5 mm 0.00 in0.0 mm 0.01 in0.3 mm
12:33 AM 38.5°F3.6°C 32.6°F0.3°C 79% Calm Calm -- 29.93 in1013.5 mb 0.02 in0.5 mm 0.00 in0.0 mm 0.01 in0.3 mm
12:38 AM 38.5°F3.6°C 32.3°F0.2°C 78% Calm Calm -- 29.93 in1013.5 mb 0.02 in0.5 mm 0.00 in0.0 mm 0.01 in0.3 mm
12:43 AM 38.5°F3.6°C 32.6°F0.3°C 79% 3.6 mph ENE5.8 kmh ENE 3.6 mph5.8 kmh 29.93 in1013.5 mb 0.02 in0.5 mm 0.00 in0.0 mm 0.01 in0.3 mm
12:48 AM 38.3°F3.5°C 32.1°F0.1°C 78% 4.1 mph ENE6.6 kmh ENE 5.1 mph8.2 kmh 29.93 in1013.5 mb 0.01 in0.3 mm 0.00 in0.0 mm 0.01 in0.3 mm
12:52 AM 38.3°F3.5°C 32.1°F0.1°C 78% 3.7 mph NE6.0 kmh NE 5.1 mph8.2 kmh 29.93 in1013.5 mb 0.01 in0.3 mm 0.00 in0.0 mm 0.01 in0.3 mm
12:57 AM 38.3°F3.5°C 32.1°F0.1°C 78% 3.2 mph ENE5.1 kmh ENE 4.7 mph7.6 kmh 29.93 in1013.5 mb 0.01 in0.3 mm 0.00 in0.0 mm 0.01 in0.3 mm
01:03 AM 38.3°F3.5°C 32.4°F0.2°C 79% 4.4 mph ENE7.1 kmh ENE 4.9 mph7.9 kmh 29.93 in1013.5 mb 0.01 in0.3 mm 0.00 in0.0 mm 0.01 in0.3 mm
01:08 AM 38.3°F3.5°C 32.4°F0.2°C 79% 4.9 mph NNW7.9 kmh NNW 5.1 mph8.2 kmh 29.94 in1013.9 mb 0.00 in0.0 mm 0.00 in0.0 mm 0.01 in0.3 mm
01:13 AM 38.2°F3.4°C 32.6°F0.3°C 80% 4.5 mph N7.2 kmh N 5.1 mph8.2 kmh 29.93 in1013.5 mb 0.00 in0.0 mm 0.00 in0.0 mm 0.01 in0.3 mm
01:18 AM 38.2°F3.4°C 32.6°F0.3°C 80% 0.4 mph NNW0.6 kmh NNW 4.7 mph7.6 kmh 29.94 in1013.9 mb 0.00 in0.0 mm 0.00 in0.0 mm 0.01 in0.3 mm
01:23 AM 38.0°F3.3°C 32.0°F0.0°C 79% 3.7 mph 6.0 kmh 4.0 mph6.4 kmh 29.93 in1013.5 mb 0.00 in0.0 mm 0.00 in0.0 mm 0.01 in0.3 mm
01:28 AM 38.0°F3.3°C 32.0°F0.0°C 79% 5.9 mph NNE9.5 kmh NNE 6.0 mph9.7 kmh 29.93 in1013.5 mb 0.00 in0.0 mm 0.00 in0.0 mm 0.01 in0.3 mm
01:33 AM 38.2°F3.4°C 32.6°F0.3°C 80% 0.4 mph 0.6 kmh 6.0 mph9.7 kmh 29.92 in1013.2 mb 0.00 in0.0 mm 0.00 in0.0 mm 0.01 in0.3 mm
01:38 AM 38.2°F3.4°C 32.6°F0.3°C 80% Calm Calm 5.6 mph9.0 kmh 29.93 in1013.5 mb 0.00 in0.0 mm 0.00 in0.0 mm 0.01 in0.3 mm
01:43 AM 38.2°F3.4°C 32.6°F0.3°C 80% 1.9 mph 3.1 kmh 2.0 mph3.2 kmh 29.93 in1013.5 mb 0.00 in0.0 mm 0.00 in0.0 mm 0.01 in0.3 mm
01:48 AM 38.3°F3.5°C 32.8°F0.4°C 80% 3.1 mph N5.0 kmh N 4.3 mph6.9 kmh 29.93 in1013.5 mb 0.00 in0.0 mm 0.00 in0.0 mm 0.01 in0.3 mm
01:53 AM 38.5°F3.6°C 32.9°F0.5°C 80% 0.4 mph NNW0.6 kmh NNW 4.3 mph6.9 kmh 29.93 in1013.5 mb 0.00 in0.0 mm 0.00 in0.0 mm 0.01 in0.3 mm
01:58 AM 38.5°F3.6°C 33.2°F0.7°C 81% Calm Calm 2.9 mph4.7 kmh 29.93 in1013.5 mb 0.00 in0.0 mm 0.00 in0.0 mm 0.01 in0.3 mm
02:03 AM 38.5°F3.6°C 33.2°F0.7°C 81% Calm Calm -- 29.93 in1013.5 mb 0.00 in0.0 mm 0.00 in0.0 mm 0.01 in0.3 mm
02:08 AM 38.5°F3.6°C 33.2°F0.7°C 81% 3.0 mph WNW4.8 kmh WNW 4.0 mph6.4 kmh 29.93 in1013.5 mb 0.00 in0.0 mm 0.00 in0.0 mm 0.01 in0.3 mm
02:13 AM 38.5°F3.6°C 33.2°F0.7°C 81% 6.3 mph WSW10.1 kmh WSW 7.6 mph12.2 kmh 29.92 in1013.2 mb 0.00 in0.0 mm 0.00 in0.0 mm 0.01 in0.3 mm
02:18 AM 38.9°F3.8°C 33.6°F0.9°C 81% 4.8 mph WSW7.7 kmh WSW 7.6 mph12.2 kmh 29.92 in1013.2 mb 0.00 in0.0 mm 0.00 in0.0 mm 0.01 in0.3 mm
02:23 AM 39.1°F3.9°C 33.8°F1.0°C 81% 6.6 mph WSW10.6 kmh WSW 6.9 mph11.1 kmh 29.92 in1013.2 mb 0.00 in0.0 mm 0.00 in0.0 mm 0.01 in0.3 mm
02:28 AM 39.2°F4.0°C 33.9°F1.1°C 81% 6.1 mph SW9.8 kmh SW 7.6 mph12.2 kmh 29.91 in1012.9 mb 0.00 in0.0 mm 0.00 in0.0 mm 0.01 in0.3 mm
02:33 AM 39.4°F4.1°C 34.4°F1.3°C 82% 9.1 mph SSW14.6 kmh SSW 10.7 mph17.2 kmh 29.91 in1012.9 mb 0.00 in0.0 mm 0.00 in0.0 mm 0.01 in0.3 mm
02:38 AM 39.8°F4.3°C 34.5°F1.4°C 81% 6.1 mph SW9.8 kmh SW 10.7 mph17.2 kmh 29.90 in1012.5 mb 0.00 in0.0 mm 0.00 in0.0 mm 0.01 in0.3 mm
02:43 AM 40.0°F4.4°C 34.6°F1.4°C 81% 3.3 mph SW5.3 kmh SW 10.3 mph16.6 kmh 29.90 in1012.5 mb 0.00 in0.0 mm 0.00 in0.0 mm 0.01 in0.3 mm
02:48 AM 40.1°F4.5°C 34.5°F1.4°C 80% 10.1 mph SSW16.3 kmh SSW 14.1 mph22.7 kmh 29.90 in1012.5 mb 0.00 in0.0 mm 0.00 in0.0 mm 0.01 in0.3 mm
02:53 AM 40.1°F4.5°C 34.7°F1.5°C 81% 9.5 mph WSW15.3 kmh WSW 14.1 mph22.7 kmh 29.91 in1012.9 mb 0.00 in0.0 mm 0.00 in0.0 mm 0.01 in0.3 mm
02:58 AM 40.1°F4.5°C 34.7°F1.5°C 81% 12.2 mph SW19.6 kmh SW 14.8 mph23.8 kmh 29.92 in1013.2 mb 0.00 in0.0 mm 0.00 in0.0 mm 0.01 in0.3 mm
03:04 AM 40.1°F4.5°C 34.5°F1.4°C 80% 12.0 mph SW19.3 kmh SW 14.8 mph23.8 kmh 29.92 in1013.2 mb 0.00 in0.0 mm 0.00 in0.0 mm 0.01 in0.3 mm
03:09 AM 40.0°F4.4°C 34.3°F1.3°C 80% 11.3 mph SW18.2 kmh SW 14.3 mph23.0 kmh 29.92 in1013.2 mb 0.00 in0.0 mm 0.00 in0.0 mm 0.01 in0.3 mm
03:14 AM 40.0°F4.4°C 34.3°F1.3°C 80% 11.2 mph SW18.0 kmh SW 13.9 mph22.4 kmh 29.92 in1013.2 mb 0.00 in0.0 mm 0.00 in0.0 mm 0.01 in0.3 mm
03:19 AM 40.0°F4.4°C 34.3°F1.3°C 80% 11.1 mph WSW17.9 kmh WSW 13.9 mph22.4 kmh 29.92 in1013.2 mb 0.00 in0.0 mm 0.00 in0.0 mm 0.01 in0.3 mm
03:24 AM 39.8°F4.3°C 34.1°F1.2°C 80% 12.6 mph SW20.3 kmh SW 14.1 mph22.7 kmh 29.92 in1013.2 mb 0.00 in0.0 mm 0.00 in0.0 mm 0.01 in0.3 mm
03:28 AM 39.8°F4.3°C 34.1°F1.2°C 80% 10.0 mph SW16.1 kmh SW 14.1 mph22.7 kmh 29.92 in1013.2 mb 0.00 in0.0 mm 0.00 in0.0 mm 0.01 in0.3 mm
03:33 AM 40.0°F4.4°C 34.3°F1.3°C 80% 10.2 mph SW16.4 kmh SW 15.0 mph24.1 kmh 29.92 in1013.2 mb 0.00 in0.0 mm 0.00 in0.0 mm 0.01 in0.3 mm
03:38 AM 40.0°F4.4°C 34.3°F1.3°C 80% 12.6 mph SW20.3 kmh SW 15.7 mph25.3 kmh 29.92 in1013.2 mb 0.00 in0.0 mm 0.00 in0.0 mm 0.01 in0.3 mm
03:43 AM 40.0°F4.4°C 34.3°F1.3°C 80% 13.0 mph WSW20.9 kmh WSW 15.7 mph25.3 kmh 29.92 in1013.2 mb 0.00 in0.0 mm 0.00 in0.0 mm 0.01 in0.3 mm
03:48 AM 39.8°F4.3°C 34.1°F1.2°C 80% 9.9 mph WSW15.9 kmh WSW 14.8 mph23.8 kmh 29.91 in1012.9 mb 0.00 in0.0 mm 0.00 in0.0 mm 0.01 in0.3 mm
03:53 AM 39.6°F4.2°C 34.0°F1.1°C 80% 3.1 mph SE5.0 kmh SE 12.8 mph20.6 kmh 29.91 in1012.9 mb 0.00 in0.0 mm 0.00 in0.0 mm 0.01 in0.3 mm
03:58 AM 39.4°F4.1°C 33.5°F0.8°C 79% 4.2 mph SW6.8 kmh SW 10.5 mph16.9 kmh 29.91 in1012.9 mb 0.00 in0.0 mm 0.00 in0.0 mm 0.01 in0.3 mm
04:04 AM 39.4°F4.1°C 33.5°F0.8°C 79% 9.1 mph SW14.6 kmh SW 13.2 mph21.2 kmh 29.91 in1012.9 mb 0.00 in0.0 mm 0.00 in0.0 mm 0.01 in0.3 mm
04:09 AM 39.4°F4.1°C 33.5°F0.8°C 79% 7.2 mph SW11.6 kmh SW 13.2 mph21.2 kmh 29.91 in1012.9 mb 0.00 in0.0 mm 0.00 in0.0 mm 0.01 in0.3 mm
04:14 AM 39.6°F4.2°C 33.7°F0.9°C 79% 11.3 mph SW18.2 kmh SW 14.8 mph23.8 kmh 29.92 in1013.2 mb 0.00 in0.0 mm 0.00 in0.0 mm 0.01 in0.3 mm
04:19 AM 40.0°F4.4°C 33.9°F1.1°C 79% 15.8 mph SSW25.4 kmh SSW 17.9 mph28.8 kmh 29.91 in1012.9 mb 0.00 in0.0 mm 0.00 in0.0 mm 0.01 in0.3 mm
04:24 AM 40.3°F4.6°C 34.3°F1.3°C 79% 14.6 mph SSW23.5 kmh SSW 17.9 mph28.8 kmh 29.91 in1012.9 mb 0.00 in0.0 mm 0.00 in0.0 mm 0.01 in0.3 mm
04:29 AM 40.5°F4.7°C 34.5°F1.4°C 79% 11.9 mph SW19.2 kmh SW 17.0 mph27.4 kmh 29.91 in1012.9 mb 0.00 in0.0 mm 0.00 in0.0 mm 0.01 in0.3 mm
04:34 AM 40.5°F4.7°C 34.1°F1.2°C 78% 13.9 mph SSW22.4 kmh SSW 17.4 mph28.0 kmh 29.91 in1012.9 mb 0.00 in0.0 mm 0.00 in0.0 mm 0.01 in0.3 mm
04:39 AM 40.5°F4.7°C 33.9°F1.1°C 77% 15.6 mph S25.1 kmh S 17.4 mph28.0 kmh 29.91 in1012.9 mb 0.00 in0.0 mm 0.00 in0.0 mm 0.01 in0.3 mm
04:44 AM 40.7°F4.8°C 33.9°F1.1°C 77% 15.8 mph SSW25.4 kmh SSW 18.1 mph29.1 kmh 29.91 in1012.9 mb 0.00 in0.0 mm 0.00 in0.0 mm 0.01 in0.3 mm
04:49 AM 40.7°F4.8°C 33.9°F1.1°C 77% 16.6 mph SSW26.7 kmh SSW 22.4 mph36.0 kmh 29.92 in1013.2 mb 0.00 in0.0 mm 0.00 in0.0 mm 0.01 in0.3 mm
04:54 AM 40.7°F4.8°C 33.9°F1.1°C 77% 17.3 mph SW27.8 kmh SW 22.4 mph36.0 kmh 29.92 in1013.2 mb 0.00 in0.0 mm 0.00 in0.0 mm 0.01 in0.3 mm
04:58 AM 40.7°F4.8°C 33.9°F1.1°C 77% 14.8 mph SW23.8 kmh SW 18.8 mph30.3 kmh 29.92 in1013.2 mb 0.00 in0.0 mm 0.00 in0.0 mm 0.01 in0.3 mm
05:04 AM 40.7°F4.8°C 33.9°F1.1°C 77% 15.9 mph SSW25.6 kmh SSW 19.9 mph32.0 kmh 29.92 in1013.2 mb 0.00 in0.0 mm 0.00 in0.0 mm 0.01 in0.3 mm
05:09 AM 40.5°F4.7°C 33.9°F1.1°C 77% 16.5 mph SW26.6 kmh SW 19.9 mph32.0 kmh 29.92 in1013.2 mb 0.00 in0.0 mm 0.00 in0.0 mm 0.01 in0.3 mm
05:14 AM 40.3°F4.6°C 33.7°F0.9°C 77% 9.5 mph WSW15.3 kmh WSW 18.3 mph29.5 kmh 29.92 in1013.2 mb 0.00 in0.0 mm 0.00 in0.0 mm 0.01 in0.3 mm
05:19 AM 40.0°F4.4°C 33.3°F0.7°C 77% 11.4 mph SW18.3 kmh SW 18.3 mph29.5 kmh 29.93 in1013.5 mb 0.00 in0.0 mm 0.00 in0.0 mm 0.01 in0.3 mm
05:24 AM 40.0°F4.4°C 33.3°F0.7°C 77% 18.0 mph SW29.0 kmh SW 19.9 mph32.0 kmh 29.93 in1013.5 mb 0.00 in0.0 mm 0.00 in0.0 mm 0.01 in0.3 mm
05:29 AM 40.0°F4.4°C 33.3°F0.7°C 77% 13.8 mph SSW22.2 kmh SSW 19.9 mph32.0 kmh 29.93 in1013.5 mb 0.00 in0.0 mm 0.00 in0.0 mm 0.01 in0.3 mm
05:34 AM 40.3°F4.6°C 33.7°F0.9°C 77% 10.8 mph SW17.4 kmh SW 17.2 mph27.7 kmh 29.93 in1013.5 mb 0.00 in0.0 mm 0.00 in0.0 mm 0.01 in0.3 mm
05:39 AM 40.7°F4.8°C 33.9°F1.1°C 77% 13.9 mph SW22.4 kmh SW 17.2 mph27.7 kmh 29.93 in1013.5 mb 0.00 in0.0 mm 0.00 in0.0 mm 0.01 in0.3 mm
05:44 AM 40.9°F4.9°C 33.9°F1.1°C 76% 18.3 mph SSW29.5 kmh SSW 20.6 mph33.2 kmh 29.93 in1013.5 mb 0.00 in0.0 mm 0.00 in0.0 mm 0.01 in0.3 mm
05:49 AM 40.7°F4.8°C 33.7°F0.9°C 76% 16.1 mph SSW25.9 kmh SSW 21.3 mph34.3 kmh 29.93 in1013.5 mb 0.00 in0.0 mm 0.00 in0.0 mm 0.01 in0.3 mm
05:54 AM 40.9°F4.9°C 33.9°F1.1°C 76% 17.7 mph SW28.5 kmh SW 21.3 mph34.3 kmh 29.93 in1013.5 mb 0.00 in0.0 mm 0.00 in0.0 mm 0.01 in0.3 mm
05:59 AM 40.9°F4.9°C 33.5°F0.8°C 75% 16.0 mph SSW25.7 kmh SSW 21.3 mph34.3 kmh 29.93 in1013.5 mb 0.00 in0.0 mm 0.00 in0.0 mm 0.01 in0.3 mm
06:04 AM 40.9°F4.9°C 33.5°F0.8°C 75% 17.0 mph SW27.4 kmh SW 21.3 mph34.3 kmh 29.92 in1013.2 mb 0.00 in0.0 mm 0.00 in0.0 mm 0.01 in0.3 mm
06:09 AM 40.9°F4.9°C 33.5°F0.8°C 75% 16.9 mph SW27.2 kmh SW 18.8 mph30.3 kmh 29.92 in1013.2 mb 0.00 in0.0 mm 0.00 in0.0 mm 0.01 in0.3 mm
06:14 AM 41.0°F5.0°C 33.3°F0.7°C 74% 16.9 mph SSW27.2 kmh SSW 20.1 mph32.3 kmh 29.92 in1013.2 mb 0.00 in0.0 mm 0.00 in0.0 mm 0.01 in0.3 mm
06:19 AM 41.0°F5.0°C 33.3°F0.7°C 74% 20.6 mph S33.2 kmh S 25.1 mph40.4 kmh 29.91 in1012.9 mb 0.00 in0.0 mm 0.00 in0.0 mm 0.01 in0.3 mm
06:24 AM 41.0°F5.0°C 33.3°F0.7°C 74% 21.9 mph S35.2 kmh S 26.8 mph43.1 kmh 29.91 in1012.9 mb 0.00 in0.0 mm 0.00 in0.0 mm 0.01 in0.3 mm
06:29 AM 41.0°F5.0°C 33.3°F0.7°C 74% 21.7 mph SSE34.9 kmh SSE 26.8 mph43.1 kmh 29.91 in1012.9 mb 0.00 in0.0 mm 0.00 in0.0 mm 0.01 in0.3 mm
06:34 AM 41.0°F5.0°C 33.3°F0.7°C 74% 28.0 mph S45.1 kmh S 31.8 mph51.2 kmh 29.91 in1012.9 mb 0.00 in0.0 mm 0.00 in0.0 mm 0.01 in0.3 mm
06:39 AM 41.0°F5.0°C 33.3°F0.7°C 74% 25.6 mph S41.2 kmh S 31.8 mph51.2 kmh 29.91 in1012.9 mb 0.00 in0.0 mm 0.00 in0.0 mm 0.01 in0.3 mm
06:44 AM 41.4°F5.2°C 33.7°F0.9°C 74% 24.2 mph S38.9 kmh S 31.8 mph51.2 kmh 29.92 in1013.2 mb 0.00 in0.0 mm 0.00 in0.0 mm 0.01 in0.3 mm
06:49 AM 41.4°F5.2°C 33.4°F0.8°C 73% 24.8 mph SSW39.9 kmh SSW 31.3 mph50.4 kmh 29.92 in1013.2 mb 0.00 in0.0 mm 0.00 in0.0 mm 0.01 in0.3 mm
06:54 AM 41.8°F5.4°C 33.8°F1.0°C 73% 21.9 mph S35.2 kmh S 29.5 mph47.5 kmh 29.94 in1013.9 mb 0.00 in0.0 mm 0.00 in0.0 mm 0.01 in0.3 mm
07:00 AM 41.8°F5.4°C 33.8°F1.0°C 73% 25.1 mph SSW40.4 kmh SSW 29.5 mph47.5 kmh 29.94 in1013.9 mb 0.00 in0.0 mm 0.00 in0.0 mm 0.01 in0.3 mm
07:05 AM 41.9°F5.5°C 33.6°F0.9°C 72% 26.4 mph S42.5 kmh S 32.2 mph51.8 kmh 29.94 in1013.9 mb 0.00 in0.0 mm 0.00 in0.0 mm 0.01 in0.3 mm
07:10 AM 42.1°F5.6°C 33.8°F1.0°C 72% 25.3 mph SW40.7 kmh SW 32.2 mph51.8 kmh 29.94 in1013.9 mb 0.00 in0.0 mm 0.00 in0.0 mm 0.01 in0.3 mm
07:15 AM 41.9°F5.5°C 33.6°F0.9°C 72% 28.4 mph S45.7 kmh S 30.4 mph48.9 kmh 29.95 in1014.2 mb 0.00 in0.0 mm 0.00 in0.0 mm 0.01 in0.3 mm
07:20 AM 41.9°F5.5°C 33.9°F1.1°C 73% 26.0 mph SSW41.8 kmh SSW 29.3 mph47.2 kmh 29.96 in1014.6 mb 0.00 in0.0 mm 0.00 in0.0 mm 0.01 in0.3 mm
07:25 AM 42.1°F5.6°C 34.1°F1.2°C 73% 17.7 mph S28.5 kmh S 28.2 mph45.4 kmh 29.96 in1014.6 mb 0.00 in0.0 mm 0.00 in0.0 mm 0.01 in0.3 mm
07:30 AM 42.3°F5.7°C 33.9°F1.1°C 72% 25.2 mph S40.6 kmh S 30.9 mph49.7 kmh 29.96 in1014.6 mb 0.00 in0.0 mm 0.00 in0.0 mm 0.01 in0.3 mm
07:35 AM 42.7°F5.9°C 34.0°F1.1°C 71% 26.6 mph SSW42.8 kmh SSW 30.9 mph49.7 kmh 29.95 in1014.2 mb 0.00 in0.0 mm 0.00 in0.0 mm 0.01 in0.3 mm
07:40 AM 42.8°F6.0°C 34.2°F1.2°C 71% 27.8 mph S44.7 kmh S 29.8 mph48.0 kmh 29.95 in1014.2 mb 0.00 in0.0 mm 0.00 in0.0 mm 0.01 in0.3 mm
07:44 AM 43.0°F6.1°C 34.3°F1.3°C 71% 28.6 mph SSW46.0 kmh SSW 30.6 mph49.2 kmh 29.95 in1014.2 mb 0.00 in0.0 mm 0.00 in0.0 mm 0.01 in0.3 mm
07:49 AM 43.0°F6.1°C 34.3°F1.3°C 71% 22.5 mph SE36.2 kmh SE 30.6 mph49.2 kmh 29.95 in1014.2 mb 0.00 in0.0 mm 0.00 in0.0 mm 0.01 in0.3 mm
07:55 AM 43.2°F6.2°C 34.2°F1.2°C 70% 25.1 mph S40.4 kmh S 30.2 mph48.6 kmh 29.95 in1014.2 mb 0.00 in0.0 mm 0.00 in0.0 mm 0.01 in0.3 mm
08:00 AM 43.2°F6.2°C 34.2°F1.2°C 70% 25.0 mph S40.2 kmh S 30.2 mph48.6 kmh 29.96 in1014.6 mb 0.00 in0.0 mm 0.00 in0.0 mm 0.01 in0.3 mm
08:05 AM 43.6°F6.4°C 34.8°F1.6°C 71% 25.5 mph SSE41.0 kmh SSE 31.3 mph50.4 kmh 29.96 in1014.6 mb 0.00 in0.0 mm 0.00 in0.0 mm 0.01 in0.3 mm
08:10 AM 43.4°F6.3°C 35.0°F1.7°C 72% 21.6 mph S34.8 kmh S 32.4 mph52.1 kmh 29.96 in1014.6 mb 0.00 in0.0 mm 0.00 in0.0 mm 0.01 in0.3 mm
08:15 AM 43.2°F6.2°C 35.2°F1.8°C 73% 26.2 mph S42.2 kmh S 32.4 mph52.1 kmh 29.96 in1014.6 mb 0.00 in0.0 mm 0.00 in0.0 mm 0.01 in0.3 mm
08:20 AM 43.2°F6.2°C 35.5°F1.9°C 74% 27.3 mph S43.9 kmh S 31.8 mph51.2 kmh 29.96 in1014.6 mb 0.00 in0.0 mm 0.00 in0.0 mm 0.01 in0.3 mm
08:25 AM 42.8°F6.0°C 35.5°F1.9°C 75% 22.0 mph S35.4 kmh S 31.8 mph51.2 kmh 29.97 in1014.9 mb 0.00 in0.0 mm 0.00 in0.0 mm 0.01 in0.3 mm
08:30 AM 42.8°F6.0°C 35.8°F2.1°C 76% 18.8 mph S30.3 kmh S 25.1 mph40.4 kmh 29.97 in1014.9 mb 0.00 in0.0 mm 0.00 in0.0 mm 0.01 in0.3 mm
08:35 AM 42.7°F5.9°C 36.5°F2.5°C 79% 19.9 mph SSW32.0 kmh SSW 24.6 mph39.6 kmh 29.96 in1014.6 mb 0.01 in0.3 mm 0.12 in3.0 mm 0.02 in0.5 mm
08:39 AM 42.5°F5.8°C 36.4°F2.4°C 79% 19.3 mph S31.1 kmh S 24.6 mph39.6 kmh 29.97 in1014.9 mb 0.01 in0.3 mm 0.00 in0.0 mm 0.02 in0.5 mm
08:44 AM 42.5°F5.8°C 36.7°F2.6°C 80% 15.9 mph SSW25.6 kmh SSW 22.8 mph36.7 kmh 29.97 in1014.9 mb 0.01 in0.3 mm 0.00 in0.0 mm 0.02 in0.5 mm
08:49 AM 42.5°F5.8°C 37.0°F2.8°C 81% 17.0 mph S27.4 kmh S 19.0 mph30.6 kmh 29.97 in1014.9 mb 0.01 in0.3 mm 0.00 in0.0 mm 0.02 in0.5 mm
08:54 AM 42.8°F6.0°C 37.4°F3.0°C 81% 22.5 mph S36.2 kmh S 27.3 mph43.9 kmh 29.97 in1014.9 mb 0.01 in0.3 mm 0.00 in0.0 mm 0.02 in0.5 mm
09:00 AM 42.8°F6.0°C 37.4°F3.0°C 81% 19.6 mph S31.5 kmh S 27.3 mph43.9 kmh 29.97 in1014.9 mb 0.02 in0.5 mm 0.01 in0.3 mm 0.03 in0.8 mm
09:05 AM 42.8°F6.0°C 37.4°F3.0°C 81% 21.3 mph SW34.3 kmh SW 24.2 mph38.9 kmh 29.97 in1014.9 mb 0.02 in0.5 mm 0.00 in0.0 mm 0.03 in0.8 mm
09:10 AM 43.2°F6.2°C 38.1°F3.4°C 82% 23.5 mph S37.8 kmh S 24.2 mph38.9 kmh 29.97 in1014.9 mb 0.02 in0.5 mm 0.00 in0.0 mm 0.03 in0.8 mm
09:15 AM 43.6°F6.4°C 38.1°F3.4°C 81% 15.1 mph S24.3 kmh S 24.2 mph38.9 kmh 29.97 in1014.9 mb 0.02 in0.5 mm 0.00 in0.0 mm 0.03 in0.8 mm
09:20 AM 43.7°F6.5°C 38.3°F3.5°C 81% 15.6 mph S25.1 kmh S 19.2 mph30.9 kmh 29.97 in1014.9 mb 0.02 in0.5 mm 0.00 in0.0 mm 0.03 in0.8 mm
09:25 AM 44.3°F6.8°C 38.8°F3.8°C 81% 19.5 mph S31.4 kmh S 20.8 mph33.5 kmh 29.96 in1014.6 mb 0.02 in0.5 mm 0.00 in0.0 mm 0.03 in0.8 mm
09:30 AM 44.6°F7.0°C 39.2°F4.0°C 81% 18.5 mph SW29.8 kmh SW 20.8 mph33.5 kmh 29.97 in1014.9 mb 0.02 in0.5 mm 0.00 in0.0 mm 0.03 in0.8 mm
09:35 AM 45.0°F7.2°C 39.5°F4.2°C 81% 19.6 mph SSW31.5 kmh SSW 22.4 mph36.0 kmh 29.97 in1014.9 mb 0.01 in0.3 mm 0.00 in0.0 mm 0.03 in0.8 mm
09:40 AM 45.0°F7.2°C 39.2°F4.0°C 80% 20.3 mph SW32.7 kmh SW 22.4 mph36.0 kmh 29.97 in1014.9 mb 0.01 in0.3 mm 0.00 in0.0 mm 0.03 in0.8 mm
09:45 AM 45.0°F7.2°C 38.9°F3.8°C 79% 24.4 mph SW39.3 kmh SW 25.1 mph40.4 kmh 29.97 in1014.9 mb 0.01 in0.3 mm 0.00 in0.0 mm 0.03 in0.8 mm
09:50 AM 45.2°F7.3°C 38.7°F3.7°C 78% 19.0 mph SW30.6 kmh SW 25.1 mph40.4 kmh 29.97 in1014.9 mb 0.01 in0.3 mm 0.00 in0.0 mm 0.03 in0.8 mm
09:55 AM 45.5°F7.5°C 38.8°F3.8°C 77% 22.3 mph SSW35.9 kmh SSW 23.3 mph37.5 kmh 29.97 in1014.9 mb 0.01 in0.3 mm 0.00 in0.0 mm 0.03 in0.8 mm
10:01 AM 45.9°F7.7°C 39.2°F4.0°C 77% 18.7 mph SW30.1 kmh SW 25.7 mph41.4 kmh 29.96 in1014.6 mb 0.00 in0.0 mm 0.00 in0.0 mm 0.03 in0.8 mm
10:05 AM 45.9°F7.7°C 39.2°F4.0°C 77% 21.0 mph SW33.8 kmh SW 25.7 mph41.4 kmh 29.96 in1014.6 mb 0.00 in0.0 mm 0.00 in0.0 mm 0.03 in0.8 mm
10:10 AM 46.1°F7.8°C 39.3°F4.1°C 77% 20.5 mph SW33.0 kmh SW 24.4 mph39.3 kmh 29.97 in1014.9 mb 0.00 in0.0 mm 0.00 in0.0 mm 0.03 in0.8 mm
10:15 AM 45.9°F7.7°C 39.4°F4.1°C 78% 20.3 mph SSW32.7 kmh SSW 24.4 mph39.3 kmh 29.97 in1014.9 mb 0.00 in0.0 mm 0.00 in0.0 mm 0.03 in0.8 mm
10:20 AM 45.7°F7.6°C 39.2°F4.0°C 78% 20.3 mph SSW32.7 kmh SSW 23.7 mph38.1 kmh 29.97 in1014.9 mb 0.00 in0.0 mm 0.00 in0.0 mm 0.03 in0.8 mm
10:25 AM 45.7°F7.6°C 39.2°F4.0°C 78% 17.1 mph SSW27.5 kmh SSW 22.8 mph36.7 kmh 29.98 in1015.2 mb 0.01 in0.3 mm 0.12 in3.0 mm 0.04 in1.0 mm
10:30 AM 45.7°F7.6°C 39.2°F4.0°C 78% 19.3 mph SSW31.1 kmh SSW 21.5 mph34.6 kmh 29.98 in1015.2 mb 0.01 in0.3 mm 0.00 in0.0 mm 0.04 in1.0 mm
10:35 AM 45.7°F7.6°C 39.2°F4.0°C 78% 20.9 mph S33.6 kmh S 23.0 mph37.0 kmh 29.98 in1015.2 mb 0.01 in0.3 mm 0.00 in0.0 mm 0.04 in1.0 mm
10:40 AM 45.7°F7.6°C 39.6°F4.2°C 79% 15.4 mph S24.8 kmh S 23.0 mph37.0 kmh 29.99 in1015.6 mb 0.01 in0.3 mm 0.00 in0.0 mm 0.04 in1.0 mm
10:45 AM 45.7°F7.6°C 39.6°F4.2°C 79% 17.1 mph S27.5 kmh S 25.9 mph41.7 kmh 29.98 in1015.2 mb 0.01 in0.3 mm 0.00 in0.0 mm 0.04 in1.0 mm
10:50 AM 46.1°F7.8°C 40.0°F4.4°C 79% 19.1 mph SSW30.7 kmh SSW 25.9 mph41.7 kmh 29.98 in1015.2 mb 0.01 in0.3 mm 0.00 in0.0 mm 0.04 in1.0 mm
10:55 AM 46.6°F8.1°C 41.1°F5.1°C 81% 18.5 mph S29.8 kmh S 23.3 mph37.5 kmh 29.98 in1015.2 mb 0.02 in0.5 mm 0.12 in3.0 mm 0.05 in1.3 mm
11:01 AM 46.8°F8.2°C 41.1°F5.1°C 80% 19.9 mph SW32.0 kmh SW 21.3 mph34.3 kmh 29.98 in1015.2 mb 0.02 in0.5 mm 0.00 in0.0 mm 0.05 in1.3 mm
11:06 AM 47.0°F8.3°C 41.1°F5.1°C 80% 17.0 mph SSW27.4 kmh SSW 21.3 mph34.3 kmh 29.98 in1015.2 mb 0.02 in0.5 mm 0.00 in0.0 mm 0.05 in1.3 mm
11:11 AM 47.2°F8.4°C 41.3°F5.2°C 80% 16.0 mph SSW25.7 kmh SSW 19.2 mph30.9 kmh 29.99 in1015.6 mb 0.02 in0.5 mm 0.00 in0.0 mm 0.05 in1.3 mm
11:16 AM 47.2°F8.4°C 41.3°F5.2°C 80% 16.9 mph SW27.2 kmh SW 20.4 mph32.8 kmh 29.99 in1015.6 mb 0.02 in0.5 mm 0.00 in0.0 mm 0.05 in1.3 mm
11:21 AM 47.2°F8.4°C 41.0°F5.0°C 79% 15.4 mph SSW24.8 kmh SSW 20.4 mph32.8 kmh 29.99 in1015.6 mb 0.02 in0.5 mm 0.00 in0.0 mm 0.05 in1.3 mm
11:26 AM 47.2°F8.4°C 41.0°F5.0°C 79% 14.4 mph SW23.2 kmh SW 19.5 mph31.4 kmh 29.99 in1015.6 mb 0.01 in0.3 mm 0.00 in0.0 mm 0.05 in1.3 mm
11:31 AM 47.2°F8.4°C 41.0°F5.0°C 79% 11.6 mph SSW18.7 kmh SSW 19.5 mph31.4 kmh 29.99 in1015.6 mb 0.01 in0.3 mm 0.00 in0.0 mm 0.05 in1.3 mm
11:35 AM 47.2°F8.4°C 41.0°F5.0°C 79% 18.0 mph SW29.0 kmh SW 20.4 mph32.8 kmh 29.98 in1015.2 mb 0.01 in0.3 mm 0.00 in0.0 mm 0.05 in1.3 mm
11:40 AM 47.2°F8.4°C 41.0°F5.0°C 79% 17.4 mph SSW28.0 kmh SSW 22.1 mph35.6 kmh 29.97 in1014.9 mb 0.01 in0.3 mm 0.00 in0.0 mm 0.05 in1.3 mm
11:45 AM 47.3°F8.5°C 41.1°F5.1°C 79% 15.1 mph SSW24.3 kmh SSW 22.1 mph35.6 kmh 29.97 in1014.9 mb 0.01 in0.3 mm 0.00 in0.0 mm 0.05 in1.3 mm
11:50 AM 47.2°F8.4°C 40.7°F4.8°C 78% 19.7 mph SW31.7 kmh SW 23.3 mph37.5 kmh 29.97 in1014.9 mb 0.00 in0.0 mm 0.00 in0.0 mm 0.05 in1.3 mm
11:55 AM 47.2°F8.4°C 41.0°F5.0°C 79% 17.9 mph SSW28.8 kmh SSW 23.3 mph37.5 kmh 29.97 in1014.9 mb 0.00 in0.0 mm 0.00 in0.0 mm 0.05 in1.3 mm
12:01 PM 47.0°F8.3°C 40.9°F4.9°C 79% 19.5 mph SSW31.4 kmh SSW 22.1 mph35.6 kmh 29.97 in1014.9 mb 0.00 in0.0 mm 0.00 in0.0 mm 0.05 in1.3 mm
12:06 PM 46.6°F8.1°C 39.8°F4.3°C 77% 18.7 mph SSW30.1 kmh SSW 22.8 mph36.7 kmh 29.97 in1014.9 mb 0.01 in0.3 mm 0.12 in3.0 mm 0.06 in1.5 mm
12:11 PM 46.4°F8.0°C 40.0°F4.4°C 78% 15.6 mph SSW25.1 kmh SSW 22.8 mph36.7 kmh 29.97 in1014.9 mb 0.01 in0.3 mm 0.00 in0.0 mm 0.06 in1.5 mm
12:16 PM 46.6°F8.1°C 40.5°F4.7°C 79% 15.1 mph S24.3 kmh S 21.3 mph34.3 kmh 29.97 in1014.9 mb 0.01 in0.3 mm 0.00 in0.0 mm 0.06 in1.5 mm
12:21 PM 46.8°F8.2°C 41.1°F5.1°C 80% 19.4 mph SSW31.2 kmh SSW 23.0 mph37.0 kmh 29.96 in1014.6 mb 0.01 in0.3 mm 0.00 in0.0 mm 0.06 in1.5 mm
12:26 PM 47.0°F8.3°C 41.5°F5.3°C 81% 17.5 mph S28.2 kmh S 23.0 mph37.0 kmh 29.96 in1014.6 mb 0.01 in0.3 mm 0.00 in0.0 mm 0.06 in1.5 mm
12:31 PM 47.3°F8.5°C 41.8°F5.4°C 81% 14.9 mph SW24.0 kmh SW 20.8 mph33.5 kmh 29.96 in1014.6 mb 0.01 in0.3 mm 0.00 in0.0 mm 0.06 in1.5 mm
12:36 PM 47.7°F8.7°C 42.1°F5.6°C 81% 17.1 mph SSW27.5 kmh SSW 20.8 mph33.5 kmh 29.96 in1014.6 mb 0.01 in0.3 mm 0.00 in0.0 mm 0.06 in1.5 mm
12:41 PM 48.1°F8.9°C 42.5°F5.8°C 81% 20.3 mph SW32.7 kmh SW 21.7 mph34.9 kmh 29.96 in1014.6 mb 0.01 in0.3 mm 0.00 in0.0 mm 0.06 in1.5 mm
12:46 PM 48.1°F8.9°C 42.1°F5.6°C 80% 15.6 mph S25.1 kmh S 21.7 mph34.9 kmh 29.96 in1014.6 mb 0.02 in0.5 mm 0.12 in3.0 mm 0.07 in1.8 mm
12:51 PM 48.1°F8.9°C 42.1°F5.6°C 80% 14.5 mph SSW23.3 kmh SSW 19.9 mph32.0 kmh 29.95 in1014.2 mb 0.02 in0.5 mm 0.00 in0.0 mm 0.07 in1.8 mm
12:56 PM 48.2°F9.0°C 42.3°F5.7°C 80% 16.4 mph SSW26.4 kmh SSW 17.9 mph28.8 kmh 29.94 in1013.9 mb 0.02 in0.5 mm 0.00 in0.0 mm 0.07 in1.8 mm
01:01 PM 48.1°F8.9°C 41.8°F5.4°C 79% 13.6 mph SW21.9 kmh SW 17.9 mph28.8 kmh 29.94 in1013.9 mb 0.02 in0.5 mm 0.00 in0.0 mm 0.07 in1.8 mm
01:06 PM 48.4°F9.1°C 42.1°F5.6°C 79% 19.2 mph SW30.9 kmh SW 19.7 mph31.7 kmh 29.94 in1013.9 mb 0.01 in0.3 mm 0.00 in0.0 mm 0.07 in1.8 mm
01:11 PM 48.6°F9.2°C 42.3°F5.7°C 79% 18.1 mph SW29.1 kmh SW 20.4 mph32.8 kmh 29.94 in1013.9 mb 0.01 in0.3 mm 0.00 in0.0 mm 0.07 in1.8 mm
01:16 PM 48.6°F9.2°C 41.9°F5.5°C 78% 20.3 mph SSW32.7 kmh SSW 22.6 mph36.4 kmh 29.94 in1013.9 mb 0.01 in0.3 mm 0.00 in0.0 mm 0.07 in1.8 mm
01:21 PM 48.4°F9.1°C 41.8°F5.4°C 78% 16.3 mph SW26.2 kmh SW 22.6 mph36.4 kmh 29.94 in1013.9 mb 0.01 in0.3 mm 0.00 in0.0 mm 0.07 in1.8 mm
01:26 PM 48.6°F9.2°C 42.3°F5.7°C 79% 19.5 mph S31.4 kmh S 21.7 mph34.9 kmh 29.94 in1013.9 mb 0.01 in0.3 mm 0.00 in0.0 mm 0.07 in1.8 mm
01:31 PM 48.2°F9.0°C 41.6°F5.3°C 78% 20.4 mph SSW32.8 kmh SSW 21.7 mph34.9 kmh 29.95 in1014.2 mb 0.01 in0.3 mm 0.00 in0.0 mm 0.07 in1.8 mm
01:36 PM 47.9°F8.8°C 41.3°F5.2°C 78% 20.0 mph SW32.2 kmh SW 21.5 mph34.6 kmh 29.95 in1014.2 mb 0.01 in0.3 mm 0.00 in0.0 mm 0.07 in1.8 mm
01:41 PM 47.7°F8.7°C 41.5°F5.3°C 79% 16.9 mph SSW27.2 kmh SSW 20.8 mph33.5 kmh 29.95 in1014.2 mb 0.01 in0.3 mm 0.00 in0.0 mm 0.07 in1.8 mm
01:46 PM 47.5°F8.6°C 41.7°F5.4°C 80% 16.6 mph SSW26.7 kmh SSW 18.8 mph30.3 kmh 29.95 in1014.2 mb 0.00 in0.0 mm 0.00 in0.0 mm 0.07 in1.8 mm
01:51 PM 47.2°F8.4°C 41.3°F5.2°C 80% 15.6 mph SW25.1 kmh SW 21.5 mph34.6 kmh 29.96 in1014.6 mb 0.00 in0.0 mm 0.00 in0.0 mm 0.07 in1.8 mm
01:56 PM 47.0°F8.3°C 40.9°F4.9°C 79% 15.7 mph SW25.3 kmh SW 21.5 mph34.6 kmh 29.96 in1014.6 mb 0.00 in0.0 mm 0.00 in0.0 mm 0.07 in1.8 mm
02:02 PM 46.8°F8.2°C 40.7°F4.8°C 79% 16.4 mph S26.4 kmh S 17.9 mph28.8 kmh 29.96 in1014.6 mb 0.01 in0.3 mm 0.01 in0.3 mm 0.08 in2.0 mm
02:07 PM 46.4°F8.0°C 40.3°F4.6°C 79% 15.8 mph SSW25.4 kmh SSW 22.8 mph36.7 kmh 29.96 in1014.6 mb 0.01 in0.3 mm 0.00 in0.0 mm 0.08 in2.0 mm
02:12 PM 46.3°F7.9°C 40.1°F4.5°C 79% 17.3 mph SSW27.8 kmh SSW 22.8 mph36.7 kmh 29.96 in1014.6 mb 0.01 in0.3 mm 0.00 in0.0 mm 0.08 in2.0 mm
02:17 PM 46.1°F7.8°C 40.0°F4.4°C 79% 14.1 mph SSW22.7 kmh SSW 18.6 mph29.9 kmh 29.96 in1014.6 mb 0.02 in0.5 mm 0.12 in3.0 mm 0.09 in2.3 mm
02:22 PM 46.1°F7.8°C 40.3°F4.6°C 80% 14.1 mph SW22.7 kmh SW 18.3 mph29.5 kmh 29.96 in1014.6 mb 0.02 in0.5 mm 0.00 in0.0 mm 0.09 in2.3 mm
02:26 PM 46.1°F7.8°C 40.0°F4.4°C 79% 5.4 mph SW8.7 kmh SW 15.7 mph25.3 kmh 29.97 in1014.9 mb 0.02 in0.5 mm 0.00 in0.0 mm 0.09 in2.3 mm
02:31 PM 46.3°F7.9°C 40.1°F4.5°C 79% 7.3 mph SW11.7 kmh SW 12.5 mph20.1 kmh 29.97 in1014.9 mb 0.03 in0.8 mm 0.12 in3.0 mm 0.10 in2.5 mm
02:36 PM 46.1°F7.8°C 40.0°F4.4°C 79% 6.3 mph WSW10.1 kmh WSW 10.3 mph16.6 kmh 29.97 in1014.9 mb 0.03 in0.8 mm 0.00 in0.0 mm 0.10 in2.5 mm
02:41 PM 45.9°F7.7°C 40.1°F4.5°C 80% 10.2 mph SW16.4 kmh SW 12.1 mph19.5 kmh 29.97 in1014.9 mb 0.04 in1.0 mm 0.12 in3.0 mm 0.11 in2.8 mm
02:46 PM 45.7°F7.6°C 40.2°F4.6°C 81% 7.5 mph SW12.1 kmh SW 12.1 mph19.5 kmh 29.97 in1014.9 mb 0.05 in1.3 mm 0.12 in3.0 mm 0.12 in3.0 mm
02:51 PM 45.2°F7.3°C 39.7°F4.3°C 81% 15.6 mph WSW25.1 kmh WSW 16.6 mph26.7 kmh 29.97 in1014.9 mb 0.06 in1.5 mm 0.12 in3.0 mm 0.13 in3.3 mm
02:56 PM 44.6°F7.0°C 39.5°F4.2°C 82% 10.2 mph WSW16.4 kmh WSW 16.6 mph26.7 kmh 29.97 in1014.9 mb 0.06 in1.5 mm 0.00 in0.0 mm 0.13 in3.3 mm
03:02 PM 44.1°F6.7°C 39.0°F3.9°C 82% 12.3 mph WSW19.8 kmh WSW 14.3 mph23.0 kmh 29.98 in1015.2 mb 0.06 in1.5 mm 0.00 in0.0 mm 0.14 in3.6 mm
03:07 PM 43.6°F6.4°C 38.4°F3.6°C 82% 10.9 mph SW17.5 kmh SW 13.4 mph21.6 kmh 29.98 in1015.2 mb 0.06 in1.5 mm 0.00 in0.0 mm 0.14 in3.6 mm
03:12 PM 43.4°F6.3°C 37.9°F3.3°C 81% 7.1 mph SW11.4 kmh SW 13.2 mph21.2 kmh 29.98 in1015.2 mb 0.06 in1.5 mm 0.00 in0.0 mm 0.14 in3.6 mm
03:17 PM 43.2°F6.2°C 38.1°F3.4°C 82% 5.4 mph SW8.7 kmh SW 10.5 mph16.9 kmh 29.99 in1015.6 mb 0.06 in1.5 mm 0.00 in0.0 mm 0.15 in3.8 mm
03:22 PM 43.2°F6.2°C 38.1°F3.4°C 82% 7.0 mph SSW11.3 kmh SSW 9.2 mph14.8 kmh 29.98 in1015.2 mb 0.06 in1.5 mm 0.00 in0.0 mm 0.15 in3.8 mm
03:27 PM 43.0°F6.1°C 37.9°F3.3°C 82% 6.9 mph WSW11.1 kmh WSW 9.2 mph14.8 kmh 29.99 in1015.6 mb 0.05 in1.3 mm 0.00 in0.0 mm 0.15 in3.8 mm
03:32 PM 42.8°F6.0°C 37.7°F3.2°C 82% 4.5 mph SW7.2 kmh SW 6.9 mph11.1 kmh 29.99 in1015.6 mb 0.06 in1.5 mm 0.12 in3.0 mm 0.16 in4.1 mm
03:37 PM 42.8°F6.0°C 37.4°F3.0°C 81% 5.1 mph SW8.2 kmh SW 6.7 mph10.8 kmh 29.99 in1015.6 mb 0.05 in1.3 mm 0.00 in0.0 mm 0.16 in4.1 mm
03:42 PM 42.7°F5.9°C 37.2°F2.9°C 81% 4.0 mph SW6.4 kmh SW 6.0 mph9.7 kmh 29.99 in1015.6 mb 0.05 in1.3 mm 0.00 in0.0 mm 0.16 in4.1 mm
03:47 PM 42.7°F5.9°C 37.5°F3.1°C 82% 5.5 mph SW8.9 kmh SW 8.5 mph13.7 kmh 29.99 in1015.6 mb 0.04 in1.0 mm 0.00 in0.0 mm 0.16 in4.1 mm
03:52 PM 42.7°F5.9°C 37.5°F3.1°C 82% 6.0 mph SW9.7 kmh SW 8.5 mph13.7 kmh 29.99 in1015.6 mb 0.04 in1.0 mm 0.00 in0.0 mm 0.17 in4.3 mm
03:57 PM 42.7°F5.9°C 37.5°F3.1°C 82% 7.2 mph SW11.6 kmh SW 7.2 mph11.6 kmh 30.00 in1015.9 mb 0.04 in1.0 mm 0.00 in0.0 mm 0.17 in4.3 mm
04:02 PM 42.5°F5.8°C 37.4°F3.0°C 82% 5.5 mph WSW8.9 kmh WSW 7.6 mph12.2 kmh 29.99 in1015.6 mb 0.03 in0.8 mm 0.00 in0.0 mm 0.17 in4.3 mm
04:07 PM 42.5°F5.8°C 37.4°F3.0°C 82% 3.4 mph SW5.5 kmh SW 7.6 mph12.2 kmh 29.99 in1015.6 mb 0.03 in0.8 mm 0.00 in0.0 mm 0.17 in4.3 mm
04:12 PM 42.5°F5.8°C 37.4°F3.0°C 82% 6.3 mph WSW10.1 kmh WSW 6.5 mph10.5 kmh 29.99 in1015.6 mb 0.02 in0.5 mm 0.00 in0.0 mm 0.17 in4.3 mm
04:17 PM 42.3°F5.7°C 37.2°F2.9°C 82% 6.4 mph SW10.3 kmh SW 6.9 mph11.1 kmh 29.99 in1015.6 mb 0.02 in0.5 mm 0.00 in0.0 mm 0.17 in4.3 mm
04:22 PM 42.1°F5.6°C 37.0°F2.8°C 82% 5.1 mph WSW8.2 kmh WSW 6.9 mph11.1 kmh 29.99 in1015.6 mb 0.03 in0.8 mm 0.12 in3.0 mm 0.18 in4.6 mm
04:27 PM 42.1°F5.6°C 37.0°F2.8°C 82% 4.3 mph SW6.9 kmh SW 6.7 mph10.8 kmh 29.99 in1015.6 mb 0.03 in0.8 mm 0.00 in0.0 mm 0.18 in4.6 mm
04:32 PM 41.9°F5.5°C 36.8°F2.7°C 82% 3.6 mph WSW5.8 kmh WSW 6.9 mph11.1 kmh 29.99 in1015.6 mb 0.02 in0.5 mm 0.00 in0.0 mm 0.18 in4.6 mm
04:37 PM 41.9°F5.5°C 36.8°F2.7°C 82% 3.5 mph SW5.6 kmh SW 6.9 mph11.1 kmh 29.99 in1015.6 mb 0.02 in0.5 mm 0.00 in0.0 mm 0.18 in4.6 mm
04:42 PM 41.9°F5.5°C 36.8°F2.7°C 82% 4.9 mph SW7.9 kmh SW 5.8 mph9.3 kmh 29.99 in1015.6 mb 0.03 in0.8 mm 0.12 in3.0 mm 0.19 in4.8 mm
04:47 PM 41.8°F5.4°C 36.6°F2.6°C 82% 4.9 mph WSW7.9 kmh WSW 6.3 mph10.1 kmh 29.99 in1015.6 mb 0.02 in0.5 mm 0.00 in0.0 mm 0.19 in4.8 mm
04:52 PM 41.8°F5.4°C 36.9°F2.7°C 83% 3.7 mph SW6.0 kmh SW 6.3 mph10.1 kmh 29.99 in1015.6 mb 0.02 in0.5 mm 0.00 in0.0 mm 0.19 in4.8 mm
04:57 PM 41.6°F5.3°C 36.7°F2.6°C 83% 2.9 mph S4.7 kmh S 4.5 mph7.2 kmh 29.99 in1015.6 mb 0.02 in0.5 mm 0.00 in0.0 mm 0.19 in4.8 mm
05:03 PM 41.6°F5.3°C 36.7°F2.6°C 83% 1.8 mph S2.9 kmh S 4.0 mph6.4 kmh 29.99 in1015.6 mb 0.02 in0.5 mm 0.00 in0.0 mm 0.19 in4.8 mm
05:08 PM 41.4°F5.2°C 36.3°F2.4°C 82% 1.6 mph SSE2.6 kmh SSE 4.0 mph6.4 kmh 29.99 in1015.6 mb 0.03 in0.8 mm 0.12 in3.0 mm 0.20 in5.1 mm
05:13 PM 41.4°F5.2°C 36.3°F2.4°C 82% 0.4 mph SSE0.6 kmh SSE 2.5 mph4.0 kmh 29.99 in1015.6 mb 0.03 in0.8 mm 0.00 in0.0 mm 0.20 in5.1 mm
05:18 PM 41.4°F5.2°C 36.3°F2.4°C 82% 1.9 mph ESE3.1 kmh ESE 2.0 mph3.2 kmh 29.99 in1015.6 mb 0.02 in0.5 mm 0.00 in0.0 mm 0.20 in5.1 mm
05:23 PM 41.4°F5.2°C 36.3°F2.4°C 82% 2.7 mph E4.3 kmh E 3.4 mph5.5 kmh 29.99 in1015.6 mb 0.02 in0.5 mm 0.00 in0.0 mm 0.20 in5.1 mm
05:28 PM 41.2°F5.1°C 36.1°F2.3°C 82% 3.4 mph E5.5 kmh E 3.8 mph6.1 kmh 29.99 in1015.6 mb 0.02 in0.5 mm 0.00 in0.0 mm 0.20 in5.1 mm
05:33 PM 41.0°F5.0°C 36.2°F2.3°C 83% 3.4 mph ESE5.5 kmh ESE 4.0 mph6.4 kmh 29.99 in1015.6 mb 0.02 in0.5 mm 0.00 in0.0 mm 0.20 in5.1 mm
05:38 PM 40.7°F4.8°C 35.8°F2.1°C 83% 5.9 mph ESE9.5 kmh ESE 6.9 mph11.1 kmh 29.99 in1015.6 mb 0.01 in0.3 mm 0.00 in0.0 mm 0.20 in5.1 mm
05:43 PM 40.7°F4.8°C 35.6°F2.0°C 82% 7.6 mph E12.2 kmh E 9.2 mph14.8 kmh 29.99 in1015.6 mb 0.02 in0.5 mm 0.12 in3.0 mm 0.21 in5.3 mm
05:48 PM 40.5°F4.7°C 35.4°F1.9°C 82% 5.4 mph ESE8.7 kmh ESE 9.2 mph14.8 kmh 29.98 in1015.2 mb 0.02 in0.5 mm 0.00 in0.0 mm 0.21 in5.3 mm
05:53 PM 40.5°F4.7°C 35.4°F1.9°C 82% 5.7 mph ESE9.2 kmh ESE 6.5 mph10.5 kmh 29.99 in1015.6 mb 0.02 in0.5 mm 0.00 in0.0 mm 0.21 in5.3 mm
05:58 PM 40.3°F4.6°C 35.2°F1.8°C 82% 4.6 mph E7.4 kmh E 6.5 mph10.5 kmh 29.99 in1015.6 mb 0.02 in0.5 mm 0.00 in0.0 mm 0.21 in5.3 mm
06:03 PM 40.3°F4.6°C 35.2°F1.8°C 82% 4.2 mph ESE6.8 kmh ESE 5.8 mph9.3 kmh 29.99 in1015.6 mb 0.02 in0.5 mm 0.00 in0.0 mm 0.22 in5.6 mm
06:08 PM 40.1°F4.5°C 35.1°F1.7°C 82% 3.0 mph ESE4.8 kmh ESE 4.9 mph7.9 kmh 29.98 in1015.2 mb 0.02 in0.5 mm 0.00 in0.0 mm 0.22 in5.6 mm
06:13 PM 40.1°F4.5°C 35.1°F1.7°C 82% 2.7 mph ESE4.3 kmh ESE 3.4 mph5.5 kmh 29.98 in1015.2 mb 0.02 in0.5 mm 0.00 in0.0 mm 0.22 in5.6 mm
06:18 PM 40.0°F4.4°C 35.2°F1.8°C 83% 3.1 mph E5.0 kmh E 3.8 mph6.1 kmh 29.98 in1015.2 mb 0.03 in0.8 mm 0.12 in3.0 mm 0.23 in5.8 mm
06:23 PM 40.0°F4.4°C 35.2°F1.8°C 83% 3.8 mph E6.1 kmh E 4.7 mph7.6 kmh 29.98 in1015.2 mb 0.03 in0.8 mm 0.00 in0.0 mm 0.23 in5.8 mm
06:28 PM 39.8°F4.3°C 35.0°F1.7°C 83% 3.6 mph E5.8 kmh E 4.7 mph7.6 kmh 29.98 in1015.2 mb 0.03 in0.8 mm 0.00 in0.0 mm 0.23 in5.8 mm
06:33 PM 39.6°F4.2°C 34.8°F1.6°C 83% 3.2 mph E5.1 kmh E 4.3 mph6.9 kmh 29.98 in1015.2 mb 0.03 in0.8 mm 0.00 in0.0 mm 0.23 in5.8 mm
06:38 PM 39.6°F4.2°C 35.2°F1.8°C 84% 3.4 mph ESE5.5 kmh ESE 4.3 mph6.9 kmh 29.98 in1015.2 mb 0.03 in0.8 mm 0.00 in0.0 mm 0.24 in6.1 mm
06:43 PM 39.4°F4.1°C 35.0°F1.7°C 84% 4.1 mph ESE6.6 kmh ESE 4.7 mph7.6 kmh 29.98 in1015.2 mb 0.03 in0.8 mm 0.00 in0.0 mm 0.24 in6.1 mm
06:48 PM 39.4°F4.1°C 35.0°F1.7°C 84% 4.2 mph ESE6.8 kmh ESE 4.7 mph7.6 kmh 29.98 in1015.2 mb 0.03 in0.8 mm 0.00 in0.0 mm 0.24 in6.1 mm
06:53 PM 39.2°F4.0°C 34.8°F1.6°C 84% 3.6 mph E5.8 kmh E 4.5 mph7.2 kmh 29.97 in1014.9 mb 0.04 in1.0 mm 0.12 in3.0 mm 0.25 in6.4 mm
06:58 PM 39.2°F4.0°C 34.8°F1.6°C 84% 4.2 mph SE6.8 kmh SE 4.7 mph7.6 kmh 29.98 in1015.2 mb 0.03 in0.8 mm 0.00 in0.0 mm 0.25 in6.4 mm
07:04 PM 39.2°F4.0°C 34.8°F1.6°C 84% 1.0 mph SE1.6 kmh SE 4.7 mph7.6 kmh 29.98 in1015.2 mb 0.03 in0.8 mm 0.00 in0.0 mm 0.25 in6.4 mm
07:09 PM 39.2°F4.0°C 34.8°F1.6°C 84% 1.8 mph SE2.9 kmh SE 3.8 mph6.1 kmh 29.98 in1015.2 mb 0.04 in1.0 mm 0.12 in3.0 mm 0.26 in6.6 mm
07:14 PM 39.2°F4.0°C 34.8°F1.6°C 84% 2.5 mph E4.0 kmh E 2.7 mph4.3 kmh 29.97 in1014.9 mb 0.03 in0.8 mm 0.00 in0.0 mm 0.26 in6.6 mm
07:19 PM 39.1°F3.9°C 34.7°F1.5°C 84% Calm Calm 2.7 mph4.3 kmh 29.97 in1014.9 mb 0.03 in0.8 mm 0.00 in0.0 mm 0.26 in6.6 mm
07:24 PM 38.9°F3.8°C 34.5°F1.4°C 84% Calm Calm 2.7 mph4.3 kmh 29.96 in1014.6 mb 0.03 in0.8 mm 0.00 in0.0 mm 0.26 in6.6 mm
07:29 PM 38.9°F3.8°C 34.7°F1.5°C 85% Calm Calm -- 29.96 in1014.6 mb 0.03 in0.8 mm 0.00 in0.0 mm 0.26 in6.6 mm
07:33 PM 38.9°F3.8°C 34.5°F1.4°C 84% Calm Calm -- 29.96 in1014.6 mb 0.03 in0.8 mm 0.00 in0.0 mm 0.26 in6.6 mm
07:38 PM 38.7°F3.7°C 34.6°F1.4°C 85% Calm Calm -- 29.97 in1014.9 mb 0.02 in0.5 mm 0.00 in0.0 mm 0.26 in6.6 mm
07:43 PM 38.7°F3.7°C 34.3°F1.3°C 84% Calm Calm -- 29.96 in1014.6 mb 0.02 in0.5 mm 0.00 in0.0 mm 0.26 in6.6 mm
07:48 PM 38.5°F3.6°C 34.4°F1.3°C 85% Calm Calm -- 29.97 in1014.9 mb 0.01 in0.3 mm 0.00 in0.0 mm 0.26 in6.6 mm
07:53 PM 38.5°F3.6°C 34.4°F1.3°C 85% Calm Calm -- 29.97 in1014.9 mb 0.01 in0.3 mm 0.00 in0.0 mm 0.26 in6.6 mm
07:58 PM 38.5°F3.6°C 34.4°F1.3°C 85% Calm Calm -- 29.96 in1014.6 mb 0.01 in0.3 mm 0.00 in0.0 mm 0.26 in6.6 mm
08:04 PM 38.5°F3.6°C 34.4°F1.3°C 85% Calm Calm -- 29.96 in1014.6 mb 0.01 in0.3 mm 0.00 in0.0 mm 0.26 in6.6 mm
08:09 PM 38.5°F3.6°C 34.4°F1.3°C 85% Calm Calm -- 29.97 in1014.9 mb 0.00 in0.0 mm 0.00 in0.0 mm 0.26 in6.6 mm
08:14 PM 38.3°F3.5°C 34.2°F1.2°C 85% Calm Calm -- 29.97 in1014.9 mb 0.00 in0.0 mm 0.00 in0.0 mm 0.26 in6.6 mm
08:19 PM 38.3°F3.5°C 34.5°F1.4°C 86% Calm Calm -- 29.97 in1014.9 mb 0.00 in0.0 mm 0.00 in0.0 mm 0.26 in6.6 mm
08:24 PM 38.2°F3.4°C 34.3°F1.3°C 86% Calm Calm -- 29.97 in1014.9 mb 0.00 in0.0 mm 0.00 in0.0 mm 0.26 in6.6 mm
08:29 PM 38.2°F3.4°C 34.0°F1.1°C 85% Calm Calm -- 29.96 in1014.6 mb 0.00 in0.0 mm 0.00 in0.0 mm 0.26 in6.6 mm
08:34 PM 38.0°F3.3°C 34.1°F1.2°C 86% Calm Calm -- 29.97 in1014.9 mb 0.00 in0.0 mm 0.00 in0.0 mm 0.26 in6.6 mm
08:39 PM 37.8°F3.2°C 33.9°F1.1°C 86% Calm Calm -- 29.97 in1014.9 mb 0.00 in0.0 mm 0.00 in0.0 mm 0.26 in6.6 mm
08:44 PM 37.8°F3.2°C 33.9°F1.1°C 86% Calm Calm -- 29.96 in1014.6 mb 0.00 in0.0 mm 0.00 in0.0 mm 0.26 in6.6 mm
08:49 PM 37.8°F3.2°C 33.9°F1.1°C 86% Calm Calm -- 29.96 in1014.6 mb 0.00 in0.0 mm 0.00 in0.0 mm 0.26 in6.6 mm
08:54 PM 37.8°F3.2°C 33.9°F1.1°C 86% Calm Calm -- 29.96 in1014.6 mb 0.00 in0.0 mm 0.00 in0.0 mm 0.26 in6.6 mm
08:59 PM 37.6°F3.1°C 33.8°F1.0°C 86% Calm Calm -- 29.96 in1014.6 mb 0.00 in0.0 mm 0.00 in0.0 mm 0.26 in6.6 mm
09:04 PM 37.4°F3.0°C 33.6°F0.9°C 86% Calm Calm -- 29.96 in1014.6 mb 0.00 in0.0 mm 0.00 in0.0 mm 0.26 in6.6 mm
09:09 PM 37.4°F3.0°C 33.6°F0.9°C 86% Calm Calm -- 29.96 in1014.6 mb 0.00 in0.0 mm 0.00 in0.0 mm 0.26 in6.6 mm
09:14 PM 37.4°F3.0°C 33.6°F0.9°C 86% Calm Calm -- 29.96 in1014.6 mb 0.00 in0.0 mm 0.00 in0.0 mm 0.26 in6.6 mm
09:19 PM 37.3°F2.9°C 33.4°F0.8°C 86% Calm Calm -- 29.96 in1014.6 mb 0.00 in0.0 mm 0.00 in0.0 mm 0.26 in6.6 mm
09:24 PM 37.1°F2.8°C 33.2°F0.7°C 86% Calm Calm -- 29.96 in1014.6 mb 0.00 in0.0 mm 0.00 in0.0 mm 0.26 in6.6 mm
09:29 PM 36.9°F2.7°C 33.0°F0.6°C 86% Calm Calm -- 29.96 in1014.6 mb 0.00 in0.0 mm 0.00 in0.0 mm 0.26 in6.6 mm
09:34 PM 36.9°F2.7°C 33.3°F0.7°C 87% Calm Calm -- 29.95 in1014.2 mb 0.00 in0.0 mm 0.00 in0.0 mm 0.26 in6.6 mm
09:39 PM 36.9°F2.7°C 33.3°F0.7°C 87% Calm Calm -- 29.95 in1014.2 mb 0.00 in0.0 mm 0.00 in0.0 mm 0.26 in6.6 mm
09:44 PM 36.7°F2.6°C 33.1°F0.6°C 87% Calm Calm -- 29.95 in1014.2 mb 0.00 in0.0 mm 0.00 in0.0 mm 0.26 in6.6 mm
09:49 PM 36.7°F2.6°C 33.1°F0.6°C 87% Calm Calm -- 29.95 in1014.2 mb 0.00 in0.0 mm 0.00 in0.0 mm 0.26 in6.6 mm
09:54 PM 36.7°F2.6°C 33.1°F0.6°C 87% Calm Calm -- 29.95 in1014.2 mb 0.00 in0.0 mm 0.00 in0.0 mm 0.26 in6.6 mm
09:59 PM 36.7°F2.6°C 33.1°F0.6°C 87% 4.0 mph NE6.4 kmh NE 4.0 mph6.4 kmh 29.95 in1014.2 mb 0.00 in0.0 mm 0.00 in0.0 mm 0.26 in6.6 mm
10:04 PM 37.3°F2.9°C 33.7°F0.9°C 87% 10.3 mph SSW16.6 kmh SSW 11.2 mph18.0 kmh 29.95 in1014.2 mb 0.00 in0.0 mm 0.00 in0.0 mm 0.26 in6.6 mm
10:09 PM 38.5°F3.6°C 35.3°F1.8°C 88% 12.1 mph S19.5 kmh S 14.5 mph23.3 kmh 29.94 in1013.9 mb 0.00 in0.0 mm 0.00 in0.0 mm 0.26 in6.6 mm
10:14 PM 38.9°F3.8°C 35.7°F2.1°C 88% 9.4 mph W15.1 kmh W 14.5 mph23.3 kmh 29.95 in1014.2 mb 0.00 in0.0 mm 0.00 in0.0 mm 0.26 in6.6 mm
10:19 PM 39.2°F4.0°C 36.0°F2.2°C 88% 8.6 mph SW13.8 kmh SW 11.4 mph18.3 kmh 29.95 in1014.2 mb 0.00 in0.0 mm 0.00 in0.0 mm 0.26 in6.6 mm
10:24 PM 39.4°F4.1°C 36.2°F2.3°C 88% 11.3 mph SSW18.2 kmh SSW 12.8 mph20.6 kmh 29.94 in1013.9 mb 0.00 in0.0 mm 0.00 in0.0 mm 0.26 in6.6 mm
10:29 PM 39.8°F4.3°C 36.5°F2.5°C 88% 12.3 mph SW19.8 kmh SW 17.2 mph27.7 kmh 29.94 in1013.9 mb 0.00 in0.0 mm 0.00 in0.0 mm 0.26 in6.6 mm
10:34 PM 40.0°F4.4°C 36.4°F2.4°C 87% 13.9 mph SSW22.4 kmh SSW 17.2 mph27.7 kmh 29.94 in1013.9 mb 0.01 in0.3 mm 0.12 in3.0 mm 0.27 in6.9 mm
10:39 PM 40.1°F4.5°C 36.5°F2.5°C 87% 12.4 mph S20.0 kmh S 15.4 mph24.8 kmh 29.95 in1014.2 mb 0.01 in0.3 mm 0.00 in0.0 mm 0.27 in6.9 mm
10:44 PM 40.5°F4.7°C 36.9°F2.7°C 87% 16.3 mph S26.2 kmh S 21.0 mph33.8 kmh 29.95 in1014.2 mb 0.01 in0.3 mm 0.00 in0.0 mm 0.27 in6.9 mm
10:49 PM 41.2°F5.1°C 37.6°F3.1°C 87% 13.1 mph SSW21.1 kmh SSW 21.0 mph33.8 kmh 29.94 in1013.9 mb 0.01 in0.3 mm 0.00 in0.0 mm 0.27 in6.9 mm
10:54 PM 41.8°F5.4°C 37.8°F3.2°C 86% 15.5 mph SW24.9 kmh SW 19.5 mph31.4 kmh 29.95 in1014.2 mb 0.01 in0.3 mm 0.00 in0.0 mm 0.27 in6.9 mm
11:00 PM 42.1°F5.6°C 37.9°F3.3°C 85% 14.8 mph SW23.8 kmh SW 18.6 mph29.9 kmh 29.94 in1013.9 mb 0.01 in0.3 mm 0.00 in0.0 mm 0.27 in6.9 mm
11:05 PM 42.3°F5.7°C 38.1°F3.4°C 85% 15.5 mph SW24.9 kmh SW 21.5 mph34.6 kmh 29.94 in1013.9 mb 0.01 in0.3 mm 0.00 in0.0 mm 0.27 in6.9 mm
11:10 PM 42.5°F5.8°C 37.6°F3.1°C 83% 17.6 mph SW28.3 kmh SW 22.4 mph36.0 kmh 29.94 in1013.9 mb 0.01 in0.3 mm 0.00 in0.0 mm 0.27 in6.9 mm
11:15 PM 42.8°F6.0°C 38.0°F3.3°C 83% 14.6 mph SSW23.5 kmh SSW 22.4 mph36.0 kmh 29.95 in1014.2 mb 0.01 in0.3 mm 0.00 in0.0 mm 0.27 in6.9 mm
11:20 PM 43.0°F6.1°C 38.2°F3.4°C 83% 17.9 mph SSW28.8 kmh SSW 22.1 mph35.6 kmh 29.95 in1014.2 mb 0.01 in0.3 mm 0.00 in0.0 mm 0.27 in6.9 mm
11:25 PM 43.0°F6.1°C 38.2°F3.4°C 83% 10.9 mph WSW17.5 kmh WSW 17.9 mph28.8 kmh 29.95 in1014.2 mb 0.01 in0.3 mm 0.00 in0.0 mm 0.27 in6.9 mm
11:30 PM 43.0°F6.1°C 37.5°F3.1°C 81% 12.4 mph SW20.0 kmh SW 22.6 mph36.4 kmh 29.95 in1014.2 mb 0.01 in0.3 mm 0.00 in0.0 mm 0.27 in6.9 mm
11:34 PM 43.2°F6.2°C 38.1°F3.4°C 82% 9.8 mph SSW15.8 kmh SSW 22.6 mph36.4 kmh 29.95 in1014.2 mb 0.00 in0.0 mm 0.00 in0.0 mm 0.27 in6.9 mm
11:39 PM 43.2°F6.2°C 37.7°F3.2°C 81% 13.9 mph SW22.4 kmh SW 16.8 mph27.0 kmh 29.94 in1013.9 mb 0.00 in0.0 mm 0.00 in0.0 mm 0.27 in6.9 mm
11:44 PM 43.4°F6.3°C 37.6°F3.1°C 80% 20.0 mph SSW32.2 kmh SSW 21.3 mph34.3 kmh 29.95 in1014.2 mb 0.00 in0.0 mm 0.00 in0.0 mm 0.27 in6.9 mm
11:49 PM 43.6°F6.4°C 37.8°F3.2°C 80% 16.1 mph S25.9 kmh S 21.3 mph34.3 kmh 29.94 in1013.9 mb 0.00 in0.0 mm 0.00 in0.0 mm 0.27 in6.9 mm
11:54 PM 43.6°F6.4°C 37.4°F3.0°C 79% 16.0 mph S25.7 kmh S 20.6 mph33.2 kmh 29.95 in1014.2 mb 0.00 in0.0 mm 0.00 in0.0 mm 0.27 in6.9 mm